Tuesday, October 21, 2014, 5:31 PM EDT

KOXB, Ocean City Municipal Airport

Location: Berlin, MD, United States Lat: 38.317
Local Time: 5:31 PM EDT (21:31 GMT) Lon: -75.117
Time Zone: US/Eastern Elev: 13 ft

Show me the last for .
Show Decoded

2014-10-21 16:53 METAR KOXB 212053Z AUTO 20005KT 10SM FEW060 FEW090 19/14 A2980 RMK AO2 SLP092
                 T01940144 55003 TSNO =
2014-10-21 15:53 METAR KOXB 211953Z AUTO 19004KT 10SM FEW048 20/13 A2979 RMK AO2 SLP087 T02000133
                 TSNO =
2014-10-21 14:53 METAR KOXB 211853Z AUTO 17006KT 10SM SCT037 21/13 A2980 RMK AO2 SLP090 T02110133
                 TSNO =
2014-10-21 13:53 METAR KOXB 211753Z AUTO 20004KT 10SM FEW035 SCT050 SCT090 21/13 A2981 RMK AO2
                 SLP095 60000 T02110133 10222 20156 58019 TSNO =
2014-10-21 12:53 METAR KOXB 211653Z AUTO 26007KT 220V320 10SM BKN034 21/13 A2983 RMK AO2 SLP101
                 T02110128 TSNO =
2014-10-21 11:53 METAR KOXB 211553Z AUTO 23007KT 10SM CLR 21/13 A2985 RMK AO2 SLP108 T02110128
                 TSNO =
2014-10-21 10:53 METAR KOXB 211453Z AUTO 26008KT 10SM CLR 19/13 A2987 RMK AO2 SLP113 60000
                 T01940133 58010 TSNO =
2014-10-21 08:53 METAR KOXB 211253Z AUTO 25005KT 10SM -RA FEW060 BKN080 OVC090 16/13 A2989 RMK
                 AO2 RAB21 SLP123 P0000 T01610133 TSNO =
2014-10-21 07:53 METAR KOXB 211153Z AUTO 22007KT 10SM FEW075 BKN100 BKN120 16/13 A2990 RMK AO2
                 SLP124 T01560133 10156 20111 53001 TSNO =
2014-10-21 06:53 METAR KOXB 211053Z AUTO 00000KT 10SM CLR 12/11 A2988 RMK AO2 SLP116 T01220111
                 TSNO =
2014-10-21 05:53 METAR KOXB 210953Z AUTO 00000KT 10SM CLR 13/12 A2988 RMK AO2 SLP119 T01280117
                 TSNO =
2014-10-21 04:53 METAR KOXB 210853Z AUTO 25006KT 10SM SCT110 16/13 A2989 RMK AO2 SLP123 T01560128
                 56017 TSNO =
2014-10-21 03:53 METAR KOXB 210753Z AUTO 00000KT 10SM FEW110 12/10 A2990 RMK AO2 SLP125 T01170100
                 TSNO =
2014-10-21 02:53 METAR KOXB 210653Z AUTO 24003KT 10SM CLR 13/11 A2993 RMK AO2 SLP134 T01330106
                 TSNO =
2014-10-21 01:53 METAR KOXB 210553Z AUTO 23004KT 10SM CLR 12/09 A2994 RMK AO2 SLP139 T01170094
                 10156 20094 56018 TSNO =
2014-10-21 00:53 METAR KOXB 210453Z AUTO 00000KT 10SM CLR 10/08 A2996 RMK AO2 SLP145 T01000083
                 401830006 TSNO =
2014-10-20 23:53 METAR KOXB 210353Z AUTO 00000KT 10SM CLR 10/08 A2997 RMK AO2 SLP149 T01000078
                 TSNO =
2014-10-20 22:53 METAR KOXB 210253Z AUTO 00000KT 10SM CLR 11/08 A2999 RMK AO2 SLP157 T01110083
                 58005 TSNO =
2014-10-20 21:53 METAR KOXB 210153Z AUTO 25003KT 10SM CLR 14/09 A3000 RMK AO2 SLP159 T01390094
                 TSNO =
2014-10-20 20:53 METAR KOXB 210053Z AUTO 22006KT 10SM CLR 15/09 A3001 RMK AO2 SLP160 T01500094
                 TSNO =
2014-10-20 19:53 METAR KOXB 202353Z AUTO 22006KT 10SM CLR 15/08 A3001 RMK AO2 SLP161 T01500083
                 10183 20150 53001 TSNO =
2014-10-20 18:53 METAR KOXB 202253Z AUTO 23006KT 10SM CLR 15/08 A3000 RMK AO2 SLP159 T01500078
                 TSNO =
2014-10-20 17:53 METAR KOXB 202153Z AUTO 20010G16KT 10SM CLR 16/08 A2999 RMK AO2 SLP157 T01610083
                 TSNO =

Support USWX by starting your Amazon purchase here.